createdAt,value
2023-02-06T00:00:28.096Z,100489.13
2023-02-06T00:01:29.793Z,100492.75
2023-02-06T00:02:31.081Z,100482.69
2023-02-06T00:03:32.356Z,100492.75
2023-02-06T00:04:33.592Z,100484.69
2023-02-06T00:05:35.116Z,100480.50
2023-02-06T00:06:36.560Z,100490.94
2023-02-06T00:07:37.804Z,100494.97
2023-02-06T00:08:39.106Z,100493.72
2023-02-06T00:09:40.299Z,100488.72
2023-02-06T00:10:41.508Z,100485.50
2023-02-06T00:11:42.744Z,100486.69
2023-02-06T00:12:44.001Z,100492.13
2023-02-06T00:13:45.623Z,100492.75
2023-02-06T00:14:46.868Z,100491.53
2023-02-06T00:15:48.336Z,100483.25
2023-02-06T00:16:49.575Z,100496.13
2023-02-06T00:17:50.845Z,100489.28
2023-02-06T00:18:52.719Z,100489.91
2023-02-06T00:19:54.008Z,100496.13
2023-02-06T00:20:55.240Z,100496.13
2023-02-06T00:21:56.470Z,100492.13
2023-02-06T00:22:57.714Z,100501.00
2023-02-06T00:24:00.037Z,100496.94
2023-02-06T00:25:01.306Z,100491.13
2023-02-06T00:26:02.573Z,100495.75
2023-02-06T00:27:03.931Z,100488.94
2023-02-06T00:28:05.433Z,100487.69
2023-02-06T00:29:06.688Z,100488.72
2023-02-06T00:30:08.096Z,100491.31
2023-02-06T00:31:09.557Z,100490.94
2023-02-06T00:32:10.928Z,100491.72
2023-02-06T00:33:12.176Z,100484.91
2023-02-06T00:34:13.448Z,100492.13
2023-02-06T00:35:14.766Z,100494.31
2023-02-06T00:36:16.254Z,100484.06
2023-02-06T00:37:17.473Z,100488.69
2023-02-06T00:38:18.719Z,100493.94
2023-02-06T00:39:19.955Z,100493.34
2023-02-06T00:40:21.174Z,100489.94
2023-02-06T00:41:22.420Z,100487.31
2023-02-06T00:42:25.632Z,100488.16
2023-02-06T00:43:26.917Z,100490.16
2023-02-06T00:44:28.329Z,100489.13
2023-02-06T00:45:29.540Z,100496.56
2023-02-06T00:46:30.970Z,100500.78
2023-02-06T00:47:32.290Z,100494.94
2023-02-06T00:48:33.496Z,100491.72
2023-02-06T00:49:34.755Z,100493.34
2023-02-06T00:50:36.313Z,100494.53
2023-02-06T00:51:37.521Z,100498.00
2023-02-06T00:52:38.815Z,100496.97
2023-02-06T00:53:40.133Z,100497.38
2023-02-06T00:54:41.331Z,100488.13
2023-02-06T00:55:42.537Z,100498.59
2023-02-06T00:56:43.804Z,100495.56
2023-02-06T00:57:45.053Z,100487.53
2023-02-06T00:58:48.500Z,100491.31
2023-02-06T00:59:49.795Z,100483.47
2023-02-06T01:00:52.204Z,100488.13
2023-02-06T01:01:53.476Z,100486.31
2023-02-06T01:02:54.789Z,100479.69
2023-02-06T01:03:56.088Z,100493.13
2023-02-06T01:04:57.447Z,100488.91
2023-02-06T01:05:58.668Z,100487.47
2023-02-06T01:07:00.021Z,100495.53
2023-02-06T01:08:04.622Z,100489.69
2023-02-06T01:09:06.195Z,100489.69
2023-02-06T01:10:08.472Z,100493.13
2023-02-06T01:11:11.248Z,100495.53
2023-02-06T01:12:12.486Z,100499.75
2023-02-06T01:13:13.781Z,100503.38
2023-02-06T01:14:15.711Z,100506.59
2023-02-06T01:15:18.019Z,100504.19
2023-02-06T01:16:20.737Z,100503.97
2023-02-06T01:17:21.986Z,100506.38
2023-02-06T01:18:23.486Z,100506.81
2023-02-06T01:19:24.752Z,100510.03
2023-02-06T01:20:25.984Z,100502.16
2023-02-06T01:21:27.277Z,100506.59
2023-02-06T01:22:28.586Z,100509.22
2023-02-06T01:23:29.833Z,100508.00
2023-02-06T01:24:31.108Z,100507.00
2023-02-06T01:25:32.406Z,100500.13
2023-02-06T01:26:33.660Z,100504.41
2023-02-06T01:27:36.239Z,100508.00
2023-02-06T01:28:38.103Z,100505.19
2023-02-06T01:29:39.365Z,100507.41
2023-02-06T01:30:40.604Z,100503.59
2023-02-06T01:31:41.843Z,100500.97
2023-02-06T01:32:43.296Z,100497.75
2023-02-06T01:33:45.172Z,100500.56
2023-02-06T01:34:46.392Z,100497.50
2023-02-06T01:35:54.625Z,100498.53
2023-02-06T01:36:55.857Z,100503.53
2023-02-06T01:37:57.078Z,100506.56
2023-02-06T01:38:58.317Z,100500.94
2023-02-06T01:39:59.572Z,100506.59
2023-02-06T01:41:01.160Z,100500.34
2023-02-06T01:42:03.148Z,100503.34
2023-02-06T01:43:05.562Z,100507.38
2023-02-06T01:44:17.103Z,100502.75
2023-02-06T01:45:21.341Z,100498.72
2023-02-06T01:46:22.717Z,100492.47
2023-02-06T01:47:24.028Z,100494.91
2023-02-06T01:48:30.162Z,100493.09
2023-02-06T01:49:37.017Z,100490.47
2023-02-06T01:50:39.474Z,100497.72
2023-02-06T01:51:40.925Z,100494.69
2023-02-06T01:52:42.220Z,100495.31
2023-02-06T01:53:44.621Z,100493.50
2023-02-06T01:54:49.656Z,100493.50
2023-02-06T01:55:52.373Z,100489.91
2023-02-06T01:56:56.439Z,100495.53
2023-02-06T01:57:58.789Z,100503.75
2023-02-06T01:59:00.896Z,100505.56
2023-02-06T02:00:06.261Z,100495.91
2023-02-06T02:01:12.789Z,100498.94
2023-02-06T02:02:14.178Z,100499.31
2023-02-06T02:03:15.645Z,100491.63
2023-02-06T02:04:19.632Z,100494.69
2023-02-06T02:05:20.982Z,100497.50
2023-02-06T02:06:23.725Z,100498.91
2023-02-06T02:07:27.401Z,100497.75
2023-02-06T02:08:33.600Z,100497.94
2023-02-06T02:09:35.044Z,100502.97
2023-02-06T02:10:36.573Z,100499.75
2023-02-06T02:11:38.752Z,100493.09
2023-02-06T02:12:39.955Z,100495.28
2023-02-06T02:13:41.282Z,100491.47
2023-02-06T02:14:43.492Z,100482.63
2023-02-06T02:15:57.842Z,100488.88
2023-02-06T02:16:59.149Z,100477.81
2023-02-06T02:18:07.063Z,100483.03
2023-02-06T02:19:28.233Z,100480.63
2023-02-06T02:20:46.430Z,100481.00
2023-02-06T02:21:50.677Z,100477.97
2023-02-06T02:23:03.108Z,100481.00
2023-02-06T02:24:19.706Z,100484.63
2023-02-06T02:25:39.890Z,100486.84
2023-02-06T02:27:06.268Z,100481.22
2023-02-06T02:28:26.225Z,100487.63
2023-02-06T02:29:30.162Z,100497.28
2023-02-06T02:30:43.552Z,100490.47
2023-02-06T02:31:56.614Z,100491.25
2023-02-06T02:33:00.808Z,100491.47
2023-02-06T02:34:02.057Z,100487.66
2023-02-06T02:35:12.379Z,100481.44
2023-02-06T02:36:13.668Z,100482.41
2023-02-06T02:37:31.176Z,100479.00
2023-02-06T02:38:40.979Z,100481.03
2023-02-06T02:39:46.283Z,100479.63
2023-02-06T02:41:08.149Z,100480.63
2023-02-06T02:42:11.993Z,100474.56
2023-02-06T02:43:28.514Z,100475.78
2023-02-06T02:44:47.109Z,100471.56
2023-02-06T02:45:51.321Z,100470.34
2023-02-06T02:46:54.717Z,100470.34
2023-02-06T02:47:58.702Z,100469.53
2023-02-06T02:49:02.534Z,100476.38
2023-02-06T02:50:04.424Z,100476.22
2023-02-06T02:51:06.746Z,100476.00
2023-02-06T02:52:08.801Z,100476.81
2023-02-06T02:53:10.684Z,100478.84
2023-02-06T02:54:11.907Z,100477.22
2023-02-06T02:55:18.484Z,100483.47
2023-02-06T02:56:21.582Z,100473.38
2023-02-06T02:57:28.667Z,100485.06
2023-02-06T02:58:32.528Z,100473.00
2023-02-06T02:59:36.377Z,100483.66
2023-02-06T03:00:42.328Z,100480.22
2023-02-06T03:01:48.705Z,100479.22
2023-02-06T03:02:51.343Z,100482.84
2023-02-06T03:03:54.793Z,100477.19
2023-02-06T03:04:59.894Z,100477.81
2023-02-06T03:06:06.194Z,100474.19
2023-02-06T03:07:12.180Z,100475.19
2023-02-06T03:08:13.423Z,100482.03
2023-02-06T03:09:30.152Z,100475.41
2023-02-06T03:10:50.322Z,100477.59
2023-02-06T03:12:07.057Z,100459.88
2023-02-06T03:13:17.108Z,100464.94
2023-02-06T03:14:27.842Z,100466.56
2023-02-06T03:15:41.570Z,100458.69
2023-02-06T03:16:47.663Z,100468.53
2023-02-06T03:17:51.856Z,100472.31
2023-02-06T03:19:19.661Z,100460.66
2023-02-06T03:20:21.554Z,100471.53
2023-02-06T03:21:23.995Z,100468.09
2023-02-06T03:22:26.633Z,100468.91
2023-02-06T03:23:31.009Z,100466.28
2023-02-06T03:24:34.249Z,100467.28
2023-02-06T03:25:38.183Z,100464.31
2023-02-06T03:26:40.921Z,100474.97
2023-02-06T03:27:43.574Z,100466.50
2023-02-06T03:28:47.633Z,100465.91
2023-02-06T03:29:50.312Z,100465.75
2023-02-06T03:30:53.728Z,100468.53
2023-02-06T03:31:57.190Z,100467.72
2023-02-06T03:33:03.629Z,100470.56
2023-02-06T03:34:08.529Z,100467.94
2023-02-06T03:35:12.561Z,100465.31
2023-02-06T03:36:13.991Z,100470.75
2023-02-06T03:37:15.287Z,100466.72
2023-02-06T03:38:16.641Z,100475.19
2023-02-06T03:39:17.921Z,100469.97
2023-02-06T03:40:19.308Z,100466.72
2023-02-06T03:41:23.658Z,100473.59
2023-02-06T03:42:25.699Z,100468.75
2023-02-06T03:43:27.978Z,100471.34
2023-02-06T03:44:34.344Z,100476.38
2023-02-06T03:45:41.115Z,100476.16
2023-02-06T03:46:43.553Z,100473.75
2023-02-06T03:47:46.329Z,100472.78
2023-02-06T03:48:50.278Z,100478.63
2023-02-06T03:49:52.985Z,100476.78
2023-02-06T03:50:55.331Z,100484.22
2023-02-06T03:52:06.930Z,100480.00
2023-02-06T03:53:09.556Z,100484.41
2023-02-06T03:54:11.705Z,100485.22
2023-02-06T03:55:14.405Z,100486.22
2023-02-06T03:56:19.626Z,100486.22
2023-02-06T03:57:22.382Z,100488.84
2023-02-06T03:58:24.599Z,100489.44
2023-02-06T03:59:26.608Z,100488.22
2023-02-06T04:00:29.409Z,100484.41
2023-02-06T04:01:31.008Z,100488.25
2023-02-06T04:02:32.493Z,100484.41
2023-02-06T04:03:33.881Z,100487.03
2023-02-06T04:04:36.706Z,100486.03
2023-02-06T04:05:38.418Z,100489.25
2023-02-06T04:06:39.758Z,100486.03
2023-02-06T04:07:41.091Z,100491.25
2023-02-06T04:08:42.311Z,100503.53
2023-02-06T04:09:43.558Z,100491.41
2023-02-06T04:10:44.773Z,100502.31
2023-02-06T04:11:45.977Z,100494.25
2023-02-06T04:12:47.173Z,100495.25
2023-02-06T04:13:48.446Z,100501.91
2023-02-06T04:14:49.991Z,100499.09
2023-02-06T04:15:51.247Z,100492.06
2023-02-06T04:16:52.540Z,100492.44
2023-02-06T04:18:00.574Z,100490.69
2023-02-06T04:19:02.659Z,100481.81
2023-02-06T04:20:04.841Z,100490.41
2023-02-06T04:21:06.676Z,100482.16
2023-02-06T04:22:09.132Z,100488.41
2023-02-06T04:23:10.346Z,100486.16
2023-02-06T04:24:11.590Z,100488.00
2023-02-06T04:25:13.103Z,100489.22
2023-02-06T04:26:14.483Z,100477.91
2023-02-06T04:27:16.158Z,100476.31
2023-02-06T04:28:17.453Z,100464.22
2023-02-06T04:29:18.977Z,100481.53
2023-02-06T04:30:20.272Z,100485.38
2023-02-06T04:31:21.596Z,100471.28
2023-02-06T04:32:22.867Z,100480.75
2023-02-06T04:33:24.097Z,100478.13
2023-02-06T04:34:25.409Z,100477.09
2023-02-06T04:35:26.625Z,100481.16
2023-02-06T04:36:27.873Z,100478.13
2023-02-06T04:37:29.114Z,100474.69
2023-02-06T04:38:30.438Z,100475.69
2023-02-06T04:39:32.023Z,100481.91
2023-02-06T04:40:33.436Z,100483.09
2023-02-06T04:41:35.078Z,100486.72
2023-02-06T04:42:36.279Z,100484.91
2023-02-06T04:43:37.464Z,100481.50
2023-02-06T04:44:38.660Z,100478.06
2023-02-06T04:45:39.906Z,100482.47
2023-02-06T04:46:41.175Z,100482.53
2023-02-06T04:47:42.416Z,100481.50
2023-02-06T04:48:43.629Z,100482.69
2023-02-06T04:49:44.906Z,100485.31
2023-02-06T04:50:46.127Z,100484.50
2023-02-06T04:51:47.333Z,100485.91
2023-02-06T04:52:48.564Z,100478.69
2023-02-06T04:53:49.836Z,100486.91
2023-02-06T04:54:51.029Z,100479.06
2023-02-06T04:55:52.341Z,100478.84
2023-02-06T04:56:53.562Z,100472.44
2023-02-06T04:57:54.748Z,100480.28
2023-02-06T04:58:55.973Z,100473.59
2023-02-06T04:59:57.372Z,100478.22
2023-02-06T05:00:58.608Z,100480.06
2023-02-06T05:01:59.881Z,100474.69
2023-02-06T05:03:01.446Z,100479.88
2023-02-06T05:04:02.888Z,100476.66
2023-02-06T05:05:04.274Z,100473.22
2023-02-06T05:06:05.707Z,100478.22
2023-02-06T05:07:07.058Z,100475.19
2023-02-06T05:08:08.324Z,100480.22
2023-02-06T05:09:09.543Z,100475.00
2023-02-06T05:10:10.772Z,100485.88
2023-02-06T05:11:11.976Z,100479.25
2023-02-06T05:12:14.338Z,100479.47
2023-02-06T05:13:15.644Z,100476.84
2023-02-06T05:14:16.845Z,100485.06
2023-02-06T05:15:18.081Z,100488.69
2023-02-06T05:16:19.443Z,100485.06
2023-02-06T05:17:20.849Z,100483.84
2023-02-06T05:18:22.187Z,100481.44
2023-02-06T05:19:23.548Z,100479.63
2023-02-06T05:20:24.864Z,100477.00
2023-02-06T05:21:26.703Z,100477.59
2023-02-06T05:22:28.205Z,100480.03
2023-02-06T05:23:29.592Z,100477.00
2023-02-06T05:24:31.023Z,100485.09
2023-02-06T05:25:32.716Z,100486.16
2023-02-06T05:26:34.126Z,100482.31
2023-02-06T05:27:35.481Z,100488.28
2023-02-06T05:28:36.693Z,100492.72
2023-02-06T05:29:38.045Z,100488.47
2023-02-06T05:30:39.315Z,100492.53
2023-02-06T05:31:40.634Z,100490.50
2023-02-06T05:32:41.914Z,100490.50
2023-02-06T05:33:43.146Z,100487.88
2023-02-06T05:34:44.832Z,100495.53
2023-02-06T05:35:46.081Z,100487.47
2023-02-06T05:36:47.372Z,100485.84
2023-02-06T05:37:48.588Z,100485.84
2023-02-06T05:38:50.534Z,100484.03
2023-02-06T05:39:51.835Z,100483.84
2023-02-06T05:40:53.093Z,100482.44
2023-02-06T05:41:54.373Z,100484.03
2023-02-06T05:42:55.676Z,100481.44
2023-02-06T05:43:56.956Z,100481.03
2023-02-06T05:44:58.470Z,100485.22
2023-02-06T05:45:59.690Z,100479.81
2023-02-06T05:47:00.964Z,100487.81
2023-02-06T05:48:02.158Z,100489.03
2023-02-06T05:49:03.449Z,100484.63
2023-02-06T05:50:04.818Z,100488.41
2023-02-06T05:51:06.076Z,100481.38
2023-02-06T05:52:07.389Z,100476.13
2023-02-06T05:53:08.592Z,100477.78
2023-02-06T05:54:09.855Z,100481.19
2023-02-06T05:55:11.227Z,100486.66
2023-02-06T05:56:12.526Z,100487.47
2023-02-06T05:57:13.752Z,100483.25
2023-02-06T05:58:14.956Z,100493.50
2023-02-06T05:59:16.203Z,100487.81
2023-02-06T06:00:17.549Z,100485.84
2023-02-06T06:01:18.761Z,100486.84
2023-02-06T06:02:19.982Z,100491.06
2023-02-06T06:03:21.253Z,100486.03
2023-02-06T06:04:22.765Z,100496.47
2023-02-06T06:05:24.153Z,100487.81
2023-02-06T06:06:25.716Z,100491.69
2023-02-06T06:07:26.921Z,100495.28
2023-02-06T06:08:28.148Z,100494.88
2023-02-06T06:09:29.360Z,100495.50
2023-02-06T06:10:30.635Z,100499.72
2023-02-06T06:11:32.040Z,100501.94
2023-02-06T06:12:35.109Z,100495.91
2023-02-06T06:13:38.224Z,100496.69
2023-02-06T06:14:39.485Z,100499.53
2023-02-06T06:15:40.729Z,100489.69
2023-02-06T06:16:41.976Z,100496.31
2023-02-06T06:17:43.361Z,100497.75
2023-02-06T06:18:44.649Z,100491.13
2023-02-06T06:19:45.888Z,100495.56
2023-02-06T06:20:47.322Z,100496.75
2023-02-06T06:21:48.538Z,100502.00
2023-02-06T06:22:49.941Z,100498.97
2023-02-06T06:23:51.152Z,100495.97
2023-02-06T06:24:52.377Z,100483.53
2023-02-06T06:25:53.633Z,100487.31
2023-02-06T06:26:54.911Z,100483.09
2023-02-06T06:27:56.191Z,100499.81
2023-02-06T06:28:57.517Z,100504.03
2023-02-06T06:29:58.776Z,100498.78
2023-02-06T06:31:04.012Z,100505.19
2023-02-06T06:32:05.555Z,100511.44
2023-02-06T06:33:06.903Z,100516.47
2023-02-06T06:34:08.248Z,100516.47
2023-02-06T06:35:09.503Z,100513.44
2023-02-06T06:36:14.049Z,100512.88
2023-02-06T06:37:16.655Z,100508.78
2023-02-06T06:38:17.918Z,100507.34
2023-02-06T06:39:19.161Z,100508.78
2023-02-06T06:40:20.487Z,100507.00
2023-02-06T06:41:21.810Z,100504.53
2023-02-06T06:42:23.109Z,100503.56
2023-02-06T06:43:24.429Z,100500.16
2023-02-06T06:44:25.747Z,100502.75
2023-02-06T06:45:26.964Z,100508.03
2023-02-06T06:46:28.425Z,100504.59
2023-02-06T06:47:29.648Z,100502.78
2023-02-06T06:48:33.632Z,100504.03
2023-02-06T06:49:34.824Z,100504.59
2023-02-06T06:50:36.034Z,100507.00
2023-02-06T06:51:37.237Z,100508.78
2023-02-06T06:52:38.456Z,100505.78
2023-02-06T06:53:39.650Z,100504.59
2023-02-06T06:54:40.897Z,100503.16
2023-02-06T06:55:42.225Z,100499.94
2023-02-06T06:56:43.439Z,100499.56
2023-02-06T06:57:45.183Z,100501.44
2023-02-06T06:58:46.444Z,100506.66
2023-02-06T06:59:48.007Z,100500.03
2023-02-06T07:00:49.268Z,100501.63
2023-02-06T07:01:50.540Z,100495.78
2023-02-06T07:02:51.774Z,100501.41
2023-02-06T07:03:53.026Z,100506.00
2023-02-06T07:04:54.283Z,100501.34
2023-02-06T07:05:55.546Z,100505.41
2023-02-06T07:06:56.745Z,100508.63
2023-02-06T07:07:58.136Z,100504.19
2023-02-06T07:08:59.329Z,100512.47
2023-02-06T07:10:00.805Z,100508.03
2023-02-06T07:11:02.061Z,100509.69
2023-02-06T07:12:03.440Z,100510.66
2023-02-06T07:13:04.701Z,100506.22
2023-02-06T07:14:05.935Z,100510.88
2023-02-06T07:15:07.440Z,100514.31
2023-02-06T07:16:09.456Z,100512.69
2023-02-06T07:17:10.715Z,100507.28
2023-02-06T07:18:12.052Z,100512.09
2023-02-06T07:19:13.342Z,100511.09
2023-02-06T07:20:14.573Z,100513.31
2023-02-06T07:21:15.895Z,100512.53
2023-02-06T07:22:17.125Z,100512.53
2023-02-06T07:23:18.552Z,100508.09
2023-02-06T07:24:19.839Z,100510.72
2023-02-06T07:25:21.114Z,100516.16
2023-02-06T07:26:22.320Z,100512.53
2023-02-06T07:27:23.551Z,100512.78
2023-02-06T07:28:24.757Z,100512.38
2023-02-06T07:29:26.041Z,100515.38
2023-02-06T07:30:27.308Z,100509.34
2023-02-06T07:31:28.612Z,100520.25
2023-02-06T07:32:29.990Z,100520.25
2023-02-06T07:33:31.212Z,100519.41
2023-02-06T07:34:32.410Z,100519.41
2023-02-06T07:35:34.088Z,100518.81
2023-02-06T07:36:35.536Z,100518.22
2023-02-06T07:37:37.228Z,100520.84
2023-02-06T07:38:38.668Z,100519.03
2023-02-06T07:39:39.945Z,100526.88
2023-02-06T07:40:45.534Z,100522.66
2023-02-06T07:41:47.408Z,100516.03
2023-02-06T07:42:50.762Z,100518.88
2023-02-06T07:43:58.973Z,100516.03
2023-02-06T07:45:00.487Z,100515.22
2023-02-06T07:46:02.750Z,100517.84
2023-02-06T07:47:04.089Z,100519.44
2023-02-06T07:48:05.502Z,100519.44
2023-02-06T07:49:06.756Z,100513.00
2023-02-06T07:50:08.177Z,100519.03
2023-02-06T07:51:09.472Z,100521.84
2023-02-06T07:52:10.753Z,100515.00
2023-02-06T07:53:11.949Z,100513.41
2023-02-06T07:54:13.438Z,100512.59
2023-02-06T07:55:14.829Z,100517.22
2023-02-06T07:56:17.102Z,100511.97
2023-02-06T07:57:19.049Z,100504.94
2023-02-06T07:58:20.281Z,100513.41
2023-02-06T07:59:21.777Z,100508.56
2023-02-06T08:00:22.994Z,100512.41
2023-02-06T08:01:24.492Z,100513.22
2023-02-06T08:02:25.746Z,100513.63
2023-02-06T08:03:26.972Z,100511.44
2023-02-06T08:04:28.273Z,100515.03
2023-02-06T08:05:29.530Z,100514.44
2023-02-06T08:06:30.776Z,100511.41
2023-02-06T08:07:32.080Z,100509.59
2023-02-06T08:08:33.294Z,100514.63
2023-02-06T08:09:34.547Z,100518.06
2023-02-06T08:10:37.576Z,100512.63
2023-02-06T08:11:38.820Z,100518.28
2023-02-06T08:12:40.024Z,100523.09
2023-02-06T08:13:41.684Z,100514.88
2023-02-06T08:14:42.888Z,100511.44
2023-02-06T08:15:44.125Z,100516.31
2023-02-06T08:16:45.376Z,100509.22
2023-02-06T08:17:46.599Z,100506.22
2023-02-06T08:18:48.445Z,100505.38
2023-02-06T08:19:49.717Z,100507.00
2023-02-06T08:20:50.959Z,100505.41
2023-02-06T08:21:52.236Z,100502.97
2023-02-06T08:22:53.861Z,100500.78
2023-02-06T08:23:58.942Z,100502.75
2023-02-06T08:25:00.193Z,100502.16
2023-02-06T08:26:05.863Z,100496.53
2023-02-06T08:27:07.134Z,100499.75
2023-02-06T08:28:08.482Z,100505.59
2023-02-06T08:29:10.074Z,100504.19
2023-02-06T08:30:11.829Z,100506.81
2023-02-06T08:31:13.161Z,100503.59
2023-02-06T08:32:14.422Z,100505.38
2023-02-06T08:33:15.668Z,100501.56
2023-02-06T08:34:16.935Z,100495.91
2023-02-06T08:35:18.172Z,100508.41
2023-02-06T08:36:20.070Z,100515.47
2023-02-06T08:37:21.264Z,100510.44
2023-02-06T08:38:22.529Z,100511.88
2023-02-06T08:39:23.746Z,100517.09
2023-02-06T08:40:25.037Z,100510.88
2023-02-06T08:41:31.008Z,100510.88
2023-02-06T08:42:32.369Z,100507.03
2023-02-06T08:43:33.637Z,100507.66
2023-02-06T08:44:34.902Z,100503.25
2023-02-06T08:45:36.548Z,100499.44
2023-02-06T08:46:38.926Z,100497.22
2023-02-06T08:47:40.176Z,100497.25
2023-02-06T08:48:41.507Z,100492.22
2023-02-06T08:49:42.770Z,100493.81
2023-02-06T08:50:44.328Z,100505.69
2023-02-06T08:51:45.917Z,100495.81
2023-02-06T08:52:47.153Z,100501.03
2023-02-06T08:53:48.392Z,100501.84
2023-02-06T08:54:50.373Z,100503.88
2023-02-06T08:55:57.017Z,100500.06
2023-02-06T08:56:58.284Z,100503.66
2023-02-06T08:57:59.505Z,100509.09
2023-02-06T08:59:01.023Z,100512.94
2023-02-06T09:00:02.451Z,100505.31
2023-02-06T09:01:11.028Z,100513.97
2023-02-06T09:02:12.354Z,100512.75
2023-02-06T09:03:13.574Z,100507.91
2023-02-06T09:04:15.364Z,100514.97
2023-02-06T09:05:16.635Z,100506.31
2023-02-06T09:06:17.942Z,100499.69
2023-02-06T09:07:19.150Z,100507.31
2023-02-06T09:08:20.344Z,100506.31
2023-02-06T09:09:21.642Z,100515.78
2023-02-06T09:10:27.774Z,100505.72
2023-02-06T09:11:29.872Z,100509.97
2023-02-06T09:12:31.121Z,100508.53
2023-02-06T09:13:32.336Z,100502.50
2023-02-06T09:14:33.570Z,100500.69
2023-02-06T09:15:35.043Z,100496.88
2023-02-06T09:16:36.512Z,100507.16
2023-02-06T09:17:37.814Z,100500.09
2023-02-06T09:18:39.231Z,100504.13
2023-02-06T09:19:40.423Z,100508.75
2023-02-06T09:20:41.667Z,100501.88
2023-02-06T09:21:42.957Z,100508.13
2023-02-06T09:22:44.194Z,100499.09
2023-02-06T09:23:47.078Z,100496.25
2023-02-06T09:24:48.270Z,100503.91
2023-02-06T09:25:49.521Z,100498.03
2023-02-06T09:26:59.423Z,100500.06
2023-02-06T09:28:01.295Z,100498.47
2023-02-06T09:29:03.369Z,100503.09
2023-02-06T09:30:04.810Z,100505.50
2023-02-06T09:31:09.286Z,100502.72
2023-02-06T09:32:10.542Z,100502.50
2023-02-06T09:33:11.780Z,100498.88
2023-02-06T09:34:13.212Z,100500.69
2023-02-06T09:35:14.505Z,100501.28
2023-02-06T09:36:16.951Z,100493.03
2023-02-06T09:37:18.290Z,100481.78
2023-02-06T09:38:19.532Z,100485.41
2023-02-06T09:39:20.792Z,100473.31
2023-02-06T09:40:24.869Z,100477.34
2023-02-06T09:41:26.103Z,100477.75
2023-02-06T09:42:37.923Z,100478.34
2023-02-06T09:43:42.367Z,100465.06
2023-02-06T09:44:46.193Z,100479.16
2023-02-06T09:45:52.844Z,100476.13
2023-02-06T09:47:14.269Z,100472.13
2023-02-06T09:48:19.209Z,100469.28
2023-02-06T09:49:22.310Z,100468.69
2023-02-06T09:50:51.031Z,100472.72
2023-02-06T09:51:57.422Z,100469.91
2023-02-06T09:53:07.765Z,100470.28
2023-02-06T09:54:18.363Z,100457.19
2023-02-06T09:55:29.484Z,100462.22
2023-02-06T09:56:48.256Z,100461.22
2023-02-06T09:57:55.029Z,100455.56
2023-02-06T09:59:06.049Z,100457.78
2023-02-06T10:00:13.648Z,100457.00
2023-02-06T10:01:19.093Z,100458.00
2023-02-06T10:02:26.892Z,100456.78
2023-02-06T10:03:46.918Z,100448.94
2023-02-06T10:04:57.047Z,100446.09
2023-02-06T10:06:16.493Z,100445.72
2023-02-06T10:07:17.758Z,100439.47
2023-02-06T10:08:22.354Z,100436.66
2023-02-06T10:09:44.599Z,100437.84
2023-02-06T10:10:49.000Z,100436.66
2023-02-06T10:11:53.734Z,100432.81
2023-02-06T10:13:13.338Z,100430.38
2023-02-06T10:14:24.195Z,100433.03
2023-02-06T10:15:29.449Z,100427.13
2023-02-06T10:16:41.442Z,100432.59
2023-02-06T10:18:18.214Z,100430.94
2023-02-06T10:19:19.457Z,100427.50
2023-02-06T10:20:55.887Z,100429.28
2023-02-06T10:22:02.836Z,100423.84
2023-02-06T10:23:13.583Z,100422.81
2023-02-06T10:24:30.734Z,100423.63
2023-02-06T10:25:34.537Z,100427.25
2023-02-06T10:26:39.488Z,100424.41
2023-02-06T10:27:42.105Z,100422.97
2023-02-06T10:28:44.083Z,100424.19
2023-02-06T10:29:46.335Z,100423.81
2023-02-06T10:31:09.379Z,100419.34
2023-02-06T10:32:19.904Z,100424.19
2023-02-06T10:33:31.708Z,100420.34
2023-02-06T10:34:47.776Z,100415.91
2023-02-06T10:35:49.017Z,100414.66
2023-02-06T10:37:08.927Z,100414.47
2023-02-06T10:38:28.724Z,100413.09
2023-02-06T10:39:39.344Z,100419.34
2023-02-06T10:40:40.587Z,100415.31
2023-02-06T10:41:54.009Z,100417.09
2023-02-06T10:43:10.616Z,100413.72
2023-02-06T10:44:51.764Z,100416.75
2023-02-06T10:46:11.418Z,100416.75
2023-02-06T10:47:20.996Z,100416.59
2023-02-06T10:48:25.161Z,100421.03
2023-02-06T10:49:31.335Z,100421.84
2023-02-06T10:50:36.426Z,100413.78
2023-02-06T10:51:43.105Z,100417.59
2023-02-06T10:52:45.037Z,100420.63
2023-02-06T10:53:51.460Z,100418.84
2023-02-06T10:55:03.115Z,100416.63
2023-02-06T10:56:06.905Z,100411.78
2023-02-06T10:57:17.263Z,100410.53
2023-02-06T10:58:27.076Z,100409.53
2023-02-06T10:59:32.587Z,100410.72
2023-02-06T11:00:34.702Z,100412.72
2023-02-06T11:01:38.597Z,100412.72
2023-02-06T11:02:44.104Z,100404.47
2023-02-06T11:03:50.376Z,100408.75
2023-02-06T11:04:54.941Z,100408.34
2023-02-06T11:05:56.693Z,100403.16
2023-02-06T11:07:01.000Z,100409.81
2023-02-06T11:08:16.488Z,100411.84
2023-02-06T11:09:17.725Z,100404.78
2023-02-06T11:10:20.437Z,100398.50
2023-02-06T11:11:25.912Z,100401.09
2023-02-06T11:12:30.375Z,100394.03
2023-02-06T11:13:34.468Z,100400.69
2023-02-06T11:14:37.363Z,100397.44
2023-02-06T11:15:50.963Z,100388.16
2023-02-06T11:16:53.050Z,100390.97
2023-02-06T11:17:54.516Z,100390.13
2023-02-06T11:18:57.589Z,100384.25
2023-02-06T11:20:01.882Z,100380.84
2023-02-06T11:21:03.572Z,100377.41
2023-02-06T11:22:04.784Z,100379.22
2023-02-06T11:23:16.981Z,100384.25
2023-02-06T11:24:20.258Z,100378.44
2023-02-06T11:25:31.773Z,100383.66
2023-02-06T11:26:33.048Z,100371.13
2023-02-06T11:27:35.616Z,100371.66
2023-02-06T11:28:39.952Z,100371.03
2023-02-06T11:29:45.603Z,100373.94
2023-02-06T11:30:54.844Z,100375.94
2023-02-06T11:32:00.192Z,100372.91
2023-02-06T11:33:21.668Z,100376.84
2023-02-06T11:34:24.503Z,100380.88
2023-02-06T11:35:39.691Z,100384.25
2023-02-06T11:36:41.931Z,100381.75
2023-02-06T11:37:43.147Z,100381.97
2023-02-06T11:38:53.632Z,100381.34
2023-02-06T11:40:13.345Z,100378.38
2023-02-06T11:41:18.213Z,100378.75
2023-02-06T11:42:21.004Z,100376.91
2023-02-06T11:43:23.926Z,100369.63
2023-02-06T11:44:26.073Z,100365.34
2023-02-06T11:45:28.974Z,100361.50
2023-02-06T11:46:31.653Z,100372.56
2023-02-06T11:47:32.845Z,100370.13
2023-02-06T11:48:41.820Z,100379.03
2023-02-06T11:49:43.071Z,100372.97
2023-02-06T11:50:52.813Z,100370.34
2023-02-06T11:51:58.466Z,100371.38
2023-02-06T11:53:07.473Z,100371.03
2023-02-06T11:54:18.379Z,100367.09
2023-02-06T11:55:23.842Z,100367.66
2023-02-06T11:56:25.116Z,100368.28
2023-02-06T11:57:26.328Z,100372.28
2023-02-06T11:58:28.887Z,100367.09
2023-02-06T11:59:31.588Z,100365.72
2023-02-06T12:00:33.569Z,100361.84
2023-02-06T12:01:42.023Z,100361.63
2023-02-06T12:02:49.422Z,100364.59
2023-02-06T12:03:50.717Z,100365.03
2023-02-06T12:04:56.805Z,100363.66
2023-02-06T12:06:03.048Z,100366.75